Airfield :
LOGIN :

Register | Disclaimer

   EN    FR    IT 

 










Legend :    VFR   Marginal VFR   IFR   Intensive IFR   Very Intensive IFR
Visi :
Ceiling :
>= 8 km
>= 3000ft
5 to 8 km
1000 to 3000 ft
1500m to 5 km
500 to 1000 ft
800 to 1500m
200 to 500 ft
< 800m
< 200 ft
Symbols :   Thunderstorms  Fog  Heavy snow  Heavy precipitations  Wind > 20 kt
SIGMETs :     Misc.  Thunderstorms  Icing  Turbulence  Mountain Waves  Volcanic Ashes






- Airport Elevation : 30 ft
- IATA code : CFN


EIDL - Donegal

CURRENT METAR :
  • 211630Z 02008KT 9999 BKN007 OVC010 13/12 Q1011

EXPIRED METARs :
  • 211600Z 02008KT 9999 OVC005 13/12 Q1011
  • 211500Z 01007KT 9999 BKN004 BKN015 OVC047 13/13 Q1011
  • 211430Z 36007KT 9000 SCT003 BKN019 OVC025 13/13 Q1011
  • 211400Z 36008KT 8000 SCT003 BKN014 OVC017 13/13 Q1011
  • 211330Z 03007KT 7000 SCT003 OVC015 13/13 Q1011
  • 211300Z 02005KT 2600 BR BKN003 OVC011 13/13 Q1011
  • 211232Z 32005KT 2000 BR BKN002 OVC011 13/13 Q1011
  • 211200Z 34005KT 2000 BR OVC002 13/12 Q1012

TAF TAF EIDL
Valid from the 21 at 12:00 until the 21 at 21:00 UTC


211100Z 2112/2121 35009KT 0500 FG BKN001
BECMG 2112/2114 5000 BKN005
TEMPO 2112/2119 3000 -SHRA SCT030CB
PROB30
TEMPO 2113/2116 2000 SHRA BR BKN003
BECMG 2114/2116 9999 NSW BKN012



MET'MAP, your aeronautical weather chart ! - Copyright ORBIFLY December 2007 - Disclaimer

ORBIFLY MET'MAP TEAM :

Programming & Development : Alexandra Zaïnal
Original concept : Baudouin d'Aumeries
Technical & hardware support : Manuel Goepfert
Assistance : Marc-Olivier Méhu




SOURCES & CREDITS :

   NOAA